»·PEaware :: N214EL KTOA-KVNY

N214EL :: KTOA-KVNY

FLIGHT INFORMATION

Flight Status: Arrived
Operator: Privately registered:
United States
More flights under this callsign
Pilot: Mark S. (16827)
Aircraft: CESSNA T210 TURBO CENTURION
(T210)
More flights by this aircraft type
Origin: KTOA Zamperini
United States
Destination: KVNY Van Nuys
United States
More flights between these airports :: More routes between these airports
Route: LAX170 LIMBO V64 SMO125 SMO SMO317 CANOG
File this flight plan on PilotEdge
Remarks:
Altitude:
(Current/Filed)
4,000ft
Speed:
(Current/Filed)
155kts
Departed: 03-Feb-21 08:29 AM
Arrived: 03-Feb-21 08:47 AM
Distance/Time
Traveled:
25nm/0:18
Distance/Time
To Go:
Arrived

Flight Plot

Page will automatically refresh every two minutes.

Flight plan parsing failed; only flown route is shown


Map Options




Map Legend


Flown Route
Filed Route
Departure Airport
Arrival Airport
Navaid (VOR, NDB)
Fix

Horizontal Profiles

Position Reports

Time Latitude Longitude Heading Altitude Ground
Speed
03-Feb-21 07:55 33.796503 -118.332401 0 105ft 0kts
03-Feb-21 07:56 33.796503 -118.332401 0 105ft 0kts
03-Feb-21 07:57 33.796503 -118.332401 0 105ft 0kts
03-Feb-21 07:58 33.796503 -118.332401 0 105ft 0kts
03-Feb-21 07:59 33.796503 -118.332401 0 105ft 0kts
03-Feb-21 08:00 33.796503 -118.332401 0 105ft 0kts
03-Feb-21 08:01 33.796503 -118.332401 0 105ft 0kts
03-Feb-21 08:02 33.796503 -118.332401 0 105ft 0kts
03-Feb-21 08:03 33.797608 -118.332419 337 103ft 5kts
03-Feb-21 08:04 33.797676 -118.332521 291 103ft 0kts
03-Feb-21 08:05 33.797682 -118.332544 290 103ft 0kts
03-Feb-21 08:06 33.797726 -118.332696 289 103ft 0kts
03-Feb-21 08:07 33.797913 -118.334231 349 105ft 10kts
03-Feb-21 08:08 33.798944 -118.333194 324 101ft 0kts
03-Feb-21 08:09 33.798944 -118.333194 324 101ft 0kts
03-Feb-21 08:10 33.798944 -118.333194 324 101ft 0kts
03-Feb-21 08:11 33.798944 -118.333194 324 101ft 0kts
03-Feb-21 08:12 33.798944 -118.333194 324 101ft 0kts
03-Feb-21 08:13 33.798944 -118.333194 324 101ft 0kts
03-Feb-21 08:14 33.798944 -118.333194 324 101ft 0kts
03-Feb-21 08:15 33.798944 -118.333194 324 101ft 0kts
03-Feb-21 08:16 33.798944 -118.333194 324 101ft 0kts
03-Feb-21 08:17 33.798944 -118.333194 324 101ft 0kts
03-Feb-21 08:18 33.798944 -118.333194 324 101ft 0kts
03-Feb-21 08:19 33.798944 -118.333194 324 101ft 0kts
03-Feb-21 08:20 33.798944 -118.333194 324 101ft 0kts
03-Feb-21 08:21 33.798944 -118.333194 324 101ft 0kts
03-Feb-21 08:22 33.798944 -118.333194 324 101ft 0kts
03-Feb-21 08:23 33.798944 -118.333194 324 101ft 0kts
03-Feb-21 08:24 33.798944 -118.333194 324 101ft 0kts
03-Feb-21 08:25 33.798944 -118.333194 324 101ft 0kts
03-Feb-21 08:26 33.798944 -118.333194 324 101ft 0kts
03-Feb-21 08:27 33.799828 -118.333269 307 99ft 0kts
03-Feb-21 08:28 33.812347 -118.351671 309 790ft 100kts
03-Feb-21 08:29 33.828884 -118.376586 308 2249ft 96kts
03-Feb-21 08:30 33.833604 -118.405811 215 3141ft 114kts
03-Feb-21 08:31 33.812449 -118.384339 73 3865ft 131kts
03-Feb-21 08:32 33.843723 -118.376542 326 4015ft 150kts
03-Feb-21 08:33 33.883909 -118.398128 337 3998ft 158kts
03-Feb-21 08:34 33.923512 -118.416465 337 3998ft 151kts
03-Feb-21 08:35 33.962625 -118.434596 337 3998ft 150kts
03-Feb-21 08:36 34.001534 -118.452637 337 3998ft 150kts
03-Feb-21 08:37 34.038829 -118.475071 330 4007ft 149kts
03-Feb-21 08:38 34.076123 -118.497342 347 4007ft 151kts
03-Feb-21 08:39 34.118012 -118.503454 349 4006ft 151kts
03-Feb-21 08:40 34.158150 -118.511138 348 4002ft 140kts
03-Feb-21 08:41 34.194719 -118.517985 349 3716ft 122kts
03-Feb-21 08:42 34.227523 -118.523138 356 2708ft 119kts
03-Feb-21 08:43 34.252211 -118.505643 82 2007ft 116kts
03-Feb-21 08:44 34.231903 -118.492409 177 1315ft 87kts
03-Feb-21 08:45 34.210936 -118.490480 176 805ft 53kts
03-Feb-21 08:46 34.206082 -118.491421 184 805ft 13kts
03-Feb-21 08:47 34.203461 -118.491485 179 805ft 0kts
03-Feb-21 08:48 34.203461 -118.491485 179 805ft 0kts
03-Feb-21 08:49 34.203461 -118.491485 179 805ft 0kts
03-Feb-21 08:50 34.203461 -118.491485 179 805ft 0kts
03-Feb-21 08:51 34.203461 -118.491485 179 805ft 0kts
03-Feb-21 08:52 34.203461 -118.491485 179 805ft 0kts
03-Feb-21 08:53 34.203461 -118.491485 179 805ft 0kts
03-Feb-21 08:54 34.203461 -118.491485 179 805ft 0kts
03-Feb-21 08:55 34.203461 -118.491485 179 805ft 0kts
03-Feb-21 08:56 34.203461 -118.491485 179 805ft 0kts
03-Feb-21 08:57 34.203461 -118.491485 179 805ft 0kts
03-Feb-21 08:58 34.203461 -118.491485 179 805ft 0kts
03-Feb-21 08:59 34.203461 -118.491485 179 805ft 0kts
03-Feb-21 09:00 34.203461 -118.491485 179 805ft 0kts

Navigation Log

Ident Type
Flight plan parsing failed, navigation log unavailable